Time,TemperatureF,DewpointF,PressureIn,WindDirection,WindDirectionDegrees,WindSpeedMPH,WindSpeedGustMPH,Humidity,HourlyPrecipIn,Conditions,Clouds,dailyrainin,SoftwareType,DateUTC
2013-02-01 00:10:00,43.5,28.9,30.16,WSW,247,0.0,-999.0,56,-99.99,,,0.00,Acu-Link.com,2013-02-01 06:10:00,
2013-02-01 00:25:00,43.5,28.9,30.15,WSW,247,0.0,-999.0,56,-99.99,,,0.00,Acu-Link.com,2013-02-01 06:25:00,
2013-02-01 00:40:00,42.6,28.0,30.15,WSW,247,0.0,-999.0,56,-99.99,,,0.00,Acu-Link.com,2013-02-01 06:40:00,
2013-02-01 00:55:00,41.9,29.0,30.16,SE,135,0.0,-999.0,60,-99.99,,,0.00,Acu-Link.com,2013-02-01 06:55:00,
2013-02-01 01:10:00,41.4,30.1,30.16,ENE,67,0.0,-999.0,64,-99.99,,,0.00,Acu-Link.com,2013-02-01 07:10:00,
2013-02-01 01:25:00,41.2,30.0,30.17,NE,45,0.0,-999.0,64,-99.99,,,0.00,Acu-Link.com,2013-02-01 07:25:00,
2013-02-01 01:40:00,41.5,30.2,30.17,West,270,0.0,-999.0,64,-99.99,,,0.00,Acu-Link.com,2013-02-01 07:40:00,
2013-02-01 01:55:00,42.1,29.6,30.18,WNW,292,0.0,-999.0,61,-99.99,,,0.00,Acu-Link.com,2013-02-01 07:55:00,
2013-02-01 02:10:00,43.0,30.5,30.18,SE,135,0.0,-999.0,61,-99.99,,,0.00,Acu-Link.com,2013-02-01 08:10:00,
2013-02-01 02:26:00,42.6,30.5,30.17,NNW,337,0.0,-999.0,62,-99.99,,,0.00,Acu-Link.com,2013-02-01 08:26:00,
2013-02-01 02:41:00,43.2,30.7,30.17,NNW,337,0.0,-999.0,61,-99.99,,,0.00,Acu-Link.com,2013-02-01 08:41:00,
2013-02-01 02:56:00,44.2,30.8,30.19,NNW,337,1.7,-999.0,59,-99.99,,,0.00,Acu-Link.com,2013-02-01 08:56:00,
2013-02-01 03:17:00,44.6,31.2,30.19,NE,45,0.0,-999.0,59,-99.99,,,0.00,Acu-Link.com,2013-02-01 09:17:00,
2013-02-01 03:32:00,45.0,31.1,30.20,NE,45,0.0,-999.0,58,-99.99,,,0.00,Acu-Link.com,2013-02-01 09:32:00,
2013-02-01 03:47:00,45.1,31.2,30.19,West,270,0.0,-999.0,58,-99.99,,,0.00,Acu-Link.com,2013-02-01 09:47:00,
2013-02-01 04:02:00,45.3,31.4,30.20,NNW,337,1.1,-999.0,58,-99.99,,,0.00,Acu-Link.com,2013-02-01 10:02:00,
2013-02-01 04:17:00,46.2,33.5,30.20,NNE,22,3.7,-999.0,61,-99.99,,,0.00,Acu-Link.com,2013-02-01 10:17:00,
2013-02-01 04:32:00,45.5,34.4,30.19,ENE,67,1.1,-999.0,65,-99.99,,,0.00,Acu-Link.com,2013-02-01 10:32:00,
2013-02-01 04:47:00,44.8,34.9,30.19,NE,45,2.7,-999.0,68,-99.99,,,0.00,Acu-Link.com,2013-02-01 10:47:00,
2013-02-01 05:02:00,44.2,35.4,30.20,NNW,337,0.0,-999.0,71,-99.99,,,0.00,Acu-Link.com,2013-02-01 11:02:00,
2013-02-01 05:18:00,43.5,35.4,30.19,NNE,22,0.0,-999.0,73,-99.99,,,0.00,Acu-Link.com,2013-02-01 11:18:00,
2013-02-01 05:33:00,42.6,35.2,30.20,ENE,67,0.0,-999.0,75,-99.99,,,0.00,Acu-Link.com,2013-02-01 11:33:00,
2013-02-01 05:48:00,41.4,35.7,30.21,West,270,0.0,-999.0,80,-99.99,,,0.00,Acu-Link.com,2013-02-01 11:48:00,
2013-02-01 06:03:00,40.5,35.4,30.21,NW,315,0.0,-999.0,82,-99.99,,,0.00,Acu-Link.com,2013-02-01 12:03:00,
2013-02-01 06:18:00,39.6,36.3,30.22,West,270,0.0,-999.0,88,-99.99,,,0.00,Acu-Link.com,2013-02-01 12:18:00,
2013-02-01 06:33:00,38.7,35.5,30.23,NW,315,0.0,-999.0,88,-99.99,,,0.00,Acu-Link.com,2013-02-01 12:33:00,
2013-02-01 06:48:00,37.4,35.8,30.23,West,270,0.0,-999.0,94,-99.99,,,0.00,Acu-Link.com,2013-02-01 12:48:00,
2013-02-01 07:03:00,36.5,36.0,30.23,WNW,292,0.0,-999.0,98,-99.99,,,0.00,Acu-Link.com,2013-02-01 13:03:00,
2013-02-01 07:18:00,35.8,35.3,30.23,WNW,292,0.0,-999.0,98,-99.99,,,0.00,Acu-Link.com,2013-02-01 13:18:00,
2013-02-01 07:34:00,35.4,34.9,30.24,West,270,0.0,-999.0,98,-99.99,,,0.00,Acu-Link.com,2013-02-01 13:34:00,
2013-02-01 07:49:00,35.6,35.1,30.24,West,270,0.0,-999.0,98,-99.99,,,0.00,Acu-Link.com,2013-02-01 13:49:00,
2013-02-01 08:04:00,38.8,38.3,30.24,North,0,0.0,-999.0,98,-99.99,,,0.00,Acu-Link.com,2013-02-01 14:04:00,
2013-02-01 08:19:00,43.3,37.6,30.24,SSE,157,0.0,-999.0,80,-99.99,,,0.00,Acu-Link.com,2013-02-01 14:19:00,
2013-02-01 08:34:00,46.8,37.9,30.24,SSE,157,0.0,-999.0,71,-99.99,,,0.00,Acu-Link.com,2013-02-01 14:34:00,
2013-02-01 08:49:00,49.1,37.5,30.24,NNE,22,0.0,-999.0,64,-99.99,,,0.00,Acu-Link.com,2013-02-01 14:49:00,
2013-02-01 09:04:00,45.7,36.5,30.24,West,270,0.0,-999.0,70,-99.99,,,0.00,Acu-Link.com,2013-02-01 15:04:00,
2013-02-01 09:19:00,47.1,37.1,30.24,NNW,337,0.0,-999.0,68,-99.99,,,0.00,Acu-Link.com,2013-02-01 15:19:00,
2013-02-01 09:34:00,48.6,38.1,30.24,East,90,2.2,-999.0,67,-99.99,,,0.00,Acu-Link.com,2013-02-01 15:34:00,
2013-02-01 09:50:00,49.1,37.5,30.24,NW,315,0.0,-999.0,64,-99.99,,,0.00,Acu-Link.com,2013-02-01 15:50:00,
2013-02-01 10:05:00,50.9,38.8,30.24,NW,315,0.0,-999.0,63,-99.99,,,0.00,Acu-Link.com,2013-02-01 16:05:00,
2013-02-01 10:20:00,51.4,38.4,30.23,NW,315,2.2,-999.0,61,-99.99,,,0.00,Acu-Link.com,2013-02-01 16:20:00,
2013-02-01 10:35:00,51.6,38.6,30.23,East,90,2.2,-999.0,61,-99.99,,,0.00,Acu-Link.com,2013-02-01 16:35:00,
2013-02-01 10:50:00,53.8,39.8,30.22,WSW,247,1.1,-999.0,59,-99.99,,,0.00,Acu-Link.com,2013-02-01 16:50:00,
2013-02-01 11:05:00,55.6,41.1,30.22,East,90,0.0,-999.0,58,-99.99,,,0.00,Acu-Link.com,2013-02-01 17:05:00,
2013-02-01 11:20:00,56.7,40.7,30.22,ESE,112,0.0,-999.0,55,-99.99,,,0.00,Acu-Link.com,2013-02-01 17:20:00,
2013-02-01 11:35:00,58.5,41.9,30.22,SSE,157,0.0,-999.0,54,-99.99,,,0.00,Acu-Link.com,2013-02-01 17:35:00,
2013-02-01 11:50:00,60.4,42.7,30.20,East,90,0.0,-999.0,52,-99.99,,,0.00,Acu-Link.com,2013-02-01 17:50:00,
2013-02-01 12:06:00,61.7,44.4,30.20,WSW,247,2.7,-999.0,53,-99.99,,,0.00,Acu-Link.com,2013-02-01 18:06:00,
2013-02-01 12:21:00,62.8,45.4,30.19,South,180,1.1,-999.0,53,-99.99,,,0.00,Acu-Link.com,2013-02-01 18:21:00,
2013-02-01 12:36:00,63.3,45.9,30.17,West,270,2.7,-999.0,53,-99.99,,,0.00,Acu-Link.com,2013-02-01 18:36:00,
2013-02-01 12:51:00,67.1,47.8,30.16,ESE,112,2.2,-999.0,50,-99.99,,,0.00,Acu-Link.com,2013-02-01 18:51:00,
2013-02-01 13:06:00,72.1,47.7,30.15,SW,225,2.7,-999.0,42,-99.99,,,0.00,Acu-Link.com,2013-02-01 19:06:00,
2013-02-01 13:21:00,73.9,48.0,30.14,ESE,112,2.7,-999.0,40,-99.99,,,0.00,Acu-Link.com,2013-02-01 19:21:00,
2013-02-01 13:36:00,75.2,48.5,30.13,West,270,5.8,-999.0,39,-99.99,,,0.00,Acu-Link.com,2013-02-01 19:36:00,
2013-02-01 13:51:00,74.3,48.4,30.12,SSE,157,3.2,-999.0,40,-99.99,,,0.00,Acu-Link.com,2013-02-01 19:51:00,
2013-02-01 14:06:00,73.6,47.1,30.12,South,180,5.3,-999.0,39,-99.99,,,0.00,Acu-Link.com,2013-02-01 20:06:00,
2013-02-01 14:22:00,73.9,47.4,30.11,West,270,3.7,-999.0,39,-99.99,,,0.00,Acu-Link.com,2013-02-01 20:22:00,
2013-02-01 14:37:00,74.3,47.7,30.11,SSE,157,2.7,-999.0,39,-99.99,,,0.00,Acu-Link.com,2013-02-01 20:37:00,
2013-02-01 14:52:00,74.1,45.4,30.10,ESE,112,7.8,-999.0,36,-99.99,,,0.00,Acu-Link.com,2013-02-01 20:52:00,
2013-02-01 15:07:00,72.3,43.8,30.10,ESE,112,4.7,-999.0,36,-99.99,,,0.00,Acu-Link.com,2013-02-01 21:07:00,
2013-02-01 15:22:00,73.0,44.5,30.09,SSE,157,3.7,-999.0,36,-99.99,,,0.00,Acu-Link.com,2013-02-01 21:22:00,
2013-02-01 15:37:00,73.0,43.0,30.09,SSE,157,6.8,-999.0,34,-99.99,,,0.00,Acu-Link.com,2013-02-01 21:37:00,
2013-02-01 15:52:00,72.0,43.6,30.09,SSW,202,3.7,-999.0,36,-99.99,,,0.00,Acu-Link.com,2013-02-01 21:52:00,
2013-02-01 16:07:00,71.1,43.5,30.08,SSE,157,1.7,-999.0,37,-99.99,,,0.00,Acu-Link.com,2013-02-01 22:07:00,
2013-02-01 16:22:00,71.4,44.5,30.08,SSE,157,1.7,-999.0,38,-99.99,,,0.00,Acu-Link.com,2013-02-01 22:22:00,
2013-02-01 16:37:00,70.5,45.0,30.08,NNE,22,4.2,-999.0,40,-99.99,,,0.00,Acu-Link.com,2013-02-01 22:37:00,
2013-02-01 16:53:00,69.8,44.4,30.08,WSW,247,6.3,-999.0,40,-99.99,,,0.00,Acu-Link.com,2013-02-01 22:53:00,
2013-02-01 17:08:00,68.2,44.2,30.07,South,180,6.3,-999.0,42,-99.99,,,0.00,Acu-Link.com,2013-02-01 23:08:00,
2013-02-01 17:23:00,67.5,43.6,30.06,SSW,202,3.7,-999.0,42,-99.99,,,0.00,Acu-Link.com,2013-02-01 23:23:00,
2013-02-01 17:38:00,66.0,42.9,30.05,South,180,3.7,-999.0,43,-99.99,,,0.00,Acu-Link.com,2013-02-01 23:38:00,
2013-02-01 17:53:00,64.9,43.0,30.05,ESE,112,3.2,-999.0,45,-99.99,,,0.00,Acu-Link.com,2013-02-01 23:53:00,
2013-02-01 18:08:00,63.5,43.5,30.05,SSW,202,3.7,-999.0,48,-99.99,,,0.00,Acu-Link.com,2013-02-02 00:08:00,
2013-02-01 18:23:00,61.9,43.1,30.05,East,90,0.0,-999.0,50,-99.99,,,0.00,Acu-Link.com,2013-02-02 00:23:00,
2013-02-01 18:38:00,60.6,42.9,30.06,SSE,157,0.0,-999.0,52,-99.99,,,0.00,Acu-Link.com,2013-02-02 00:38:00,
2013-02-01 18:53:00,58.5,41.9,30.06,South,180,0.0,-999.0,54,-99.99,,,0.00,Acu-Link.com,2013-02-02 00:53:00,
2013-02-01 19:09:00,57.4,42.3,30.06,SSE,157,0.0,-999.0,57,-99.99,,,0.00,Acu-Link.com,2013-02-02 01:09:00,
2013-02-01 19:24:00,56.8,42.2,30.06,SE,135,0.0,-999.0,58,-99.99,,,0.00,Acu-Link.com,2013-02-02 01:24:00,
2013-02-01 19:39:00,56.1,42.0,30.06,SSE,157,0.0,-999.0,59,-99.99,,,0.00,Acu-Link.com,2013-02-02 01:39:00,
2013-02-01 19:54:00,55.8,42.1,30.07,ESE,112,0.0,-999.0,60,-99.99,,,0.00,Acu-Link.com,2013-02-02 01:54:00,
2013-02-01 20:09:00,55.2,42.4,30.07,ESE,112,1.7,-999.0,62,-99.99,,,0.00,Acu-Link.com,2013-02-02 02:09:00,
2013-02-01 20:24:00,55.2,42.8,30.08,SE,135,2.7,-999.0,63,-99.99,,,0.00,Acu-Link.com,2013-02-02 02:24:00,
2013-02-01 20:39:00,56.1,42.0,30.08,ESE,112,1.7,-999.0,59,-99.99,,,0.00,Acu-Link.com,2013-02-02 02:39:00,
2013-02-01 20:54:00,56.8,41.3,30.09,SSE,157,3.7,-999.0,56,-99.99,,,0.00,Acu-Link.com,2013-02-02 02:54:00,
2013-02-01 21:09:00,57.0,40.5,30.09,South,180,3.2,-999.0,54,-99.99,,,0.00,Acu-Link.com,2013-02-02 03:09:00,
2013-02-01 21:25:00,57.0,40.5,30.09,NE,45,4.7,-999.0,54,-99.99,,,0.00,Acu-Link.com,2013-02-02 03:25:00,
2013-02-01 21:40:00,56.5,41.0,30.09,SSE,157,4.7,-999.0,56,-99.99,,,0.00,Acu-Link.com,2013-02-02 03:40:00,
2013-02-01 21:55:00,55.6,41.1,30.09,South,180,3.2,-999.0,58,-99.99,,,0.00,Acu-Link.com,2013-02-02 03:55:00,
2013-02-01 22:10:00,55.2,42.4,30.09,SE,135,2.2,-999.0,62,-99.99,,,0.00,Acu-Link.com,2013-02-02 04:10:00,
2013-02-01 22:25:00,54.9,43.0,30.09,SW,225,5.8,-999.0,64,-99.99,,,0.00,Acu-Link.com,2013-02-02 04:25:00,
2013-02-01 22:40:00,54.5,43.8,30.09,ESE,112,2.7,-999.0,67,-99.99,,,0.00,Acu-Link.com,2013-02-02 04:40:00,
2013-02-01 22:56:00,54.3,45.1,30.09,WSW,247,0.0,-999.0,71,-99.99,,,0.00,Acu-Link.com,2013-02-02 04:56:00,
2013-02-01 23:11:00,53.6,45.5,30.09,SSE,157,0.0,-999.0,74,-99.99,,,0.00,Acu-Link.com,2013-02-02 05:11:00,
2013-02-01 23:26:00,53.4,46.4,30.09,SSE,157,5.8,-999.0,77,-99.99,,,0.00,Acu-Link.com,2013-02-02 05:26:00,
2013-02-01 23:41:00,53.4,47.4,30.09,SSE,157,6.8,-999.0,80,-99.99,,,0.00,Acu-Link.com,2013-02-02 05:41:00,
2013-02-01 23:56:00,53.4,48.4,30.08,ESE,112,3.7,-999.0,83,-99.99,,,0.00,Acu-Link.com,2013-02-02 05:56:00,